Time;durP1;ratioP1;P1;durP2;ratioP2;P2;SDS_P1;SDS_P2;PMS_P1;PMS_P2;Temp;Humidity;BMP_temperature;BMP_pressure;BME280_temperature;BME280_humidity;BME280_pressure;Samples;Min_cycle;Max_cycle;Signal;HPM_P1;HPM_P2
2022/03/31 00:00:57;;;;;;;0.10;0.10;;;5.60;1.00;12.80;88045.00;;;;5029667;28;20207;-73
2022/03/31 00:03:25;;;;;;;0.03;0.03;;;5.60;1.00;12.80;88045.00;;;;5030562;28;20633;-73
2022/03/31 00:05:53;;;;;;;0.10;0.10;;;5.60;1.00;12.80;88045.00;;;;5033480;28;20195;-73
2022/03/31 00:08:22;;;;;;;0.10;0.10;;;5.70;1.00;12.80;88045.00;;;;5030882;28;20211;-73
2022/03/31 00:10:53;;;;;;;0.10;0.10;;;5.70;1.00;12.80;88045.00;;;;5033455;28;20214;-73
2022/03/31 00:13:24;;;;;;;0.10;0.10;;;5.70;1.00;12.80;88045.00;;;;5031907;28;20199;-74
2022/03/31 00:15:56;;;;;;;0.10;0.10;;;5.60;1.00;12.80;88045.00;;;;5032543;28;20214;-73
2022/03/31 00:18:27;;;;;;;0.10;0.10;;;5.60;1.00;12.80;88045.00;;;;5032382;28;20234;-73
2022/03/31 00:20:55;;;;;;;0.10;0.10;;;5.60;1.00;12.80;88045.00;;;;5030541;28;20444;-73
2022/03/31 00:23:23;;;;;;;0.10;0.10;;;5.60;1.00;12.80;88045.00;;;;5033012;28;20199;-73
2022/03/31 00:25:51;;;;;;;0.10;0.10;;;5.60;1.00;12.80;88045.00;;;;5033179;28;20227;-73
2022/03/31 00:28:19;;;;;;;0.10;0.10;;;5.60;1.00;12.80;88045.00;;;;5025507;28;20215;-73
2022/03/31 00:30:48;;;;;;;0.10;0.10;;;5.60;1.00;12.80;88045.00;;;;5032040;28;20703;-74
2022/03/31 00:33:17;;;;;;;0.10;0.10;;;5.60;1.00;12.80;88045.00;;;;5031517;28;20374;-74
2022/03/31 00:35:45;;;;;;;0.10;0.10;;;5.60;1.00;12.80;88045.00;;;;5029167;28;20199;-73
2022/03/31 00:38:13;;;;;;;0.10;0.10;;;5.60;1.00;12.80;88045.00;;;;5033363;28;20207;-74
2022/03/31 00:40:41;;;;;;;0.10;0.10;;;5.60;1.00;12.80;88045.00;;;;5032357;28;20238;-74
2022/03/31 00:43:09;;;;;;;0.10;0.10;;;5.60;1.00;12.80;88045.00;;;;5032891;28;20191;-76
2022/03/31 00:45:47;;;;;;;0.10;0.10;;;5.60;1.00;12.80;88045.00;;;;5030519;28;20249;-75
2022/03/31 00:48:20;;;;;;;0.10;0.10;;;5.60;1.00;12.80;88045.00;;;;5032865;28;20584;-75
2022/03/31 00:50:48;;;;;;;0.10;0.10;;;5.60;1.00;12.80;88045.00;;;;5033102;28;20218;-74
2022/03/31 00:53:17;;;;;;;0.10;0.10;;;5.60;1.00;12.80;88045.00;;;;5033330;28;20199;-73
2022/03/31 00:56:02;;;;;;;0.10;0.10;;;5.60;1.00;12.80;88045.00;;;;5029546;28;20207;-73
2022/03/31 00:58:32;;;;;;;0.10;0.10;;;5.60;1.00;12.80;88045.00;;;;5032844;28;20591;-74
2022/03/31 01:01:00;;;;;;;0.10;0.10;;;5.60;1.00;12.80;88045.00;;;;5032771;28;20273;-74
2022/03/31 01:03:30;;;;;;;0.10;0.10;;;5.60;1.00;12.80;88045.00;;;;5029689;28;20245;-74
2022/03/31 01:05:58;;;;;;;0.10;0.10;;;5.60;1.00;12.80;88045.00;;;;5032099;28;20187;-74
2022/03/31 01:08:27;;;;;;;0.10;0.10;;;5.60;1.00;12.80;88045.00;;;;5032319;28;20722;-74
2022/03/31 01:10:56;;;;;;;0.10;0.10;;;5.60;1.00;12.80;88045.00;;;;5031936;28;20218;-74
2022/03/31 01:13:24;;;;;;;0.10;0.10;;;5.60;1.00;12.80;88045.00;;;;5032775;28;20195;-75
2022/03/31 01:15:52;;;;;;;0.10;0.10;;;5.60;1.00;12.80;88045.00;;;;5031017;28;20214;-74
2022/03/31 01:18:20;;;;;;;0.10;0.10;;;5.60;1.00;12.80;88045.00;;;;5032371;28;20215;-75
2022/03/31 01:20:50;;;;;;;0.10;0.10;;;5.60;1.00;12.80;88045.00;;;;5020516;28;20219;-74
2022/03/31 01:23:20;;;;;;;0.10;0.10;;;5.60;1.00;12.80;88045.00;;;;5032293;28;20194;-74
2022/03/31 01:25:48;;;;;;;0.10;0.10;;;5.60;1.00;12.80;88045.00;;;;5032097;28;20671;-74
2022/03/31 01:28:16;;;;;;;0.00;0.00;;;5.70;1.00;12.80;88045.00;;;;5032054;28;20218;-74
2022/03/31 01:30:44;;;;;;;0.10;0.10;;;5.60;1.00;12.80;88045.00;;;;5031662;28;20688;-73
2022/03/31 01:33:14;;;;;;;0.10;0.10;;;5.70;1.00;12.80;88045.00;;;;5030958;28;20191;-73
2022/03/31 01:35:42;;;;;;;0.10;0.10;;;5.60;1.00;12.80;88045.00;;;;5028535;28;20676;-73
2022/03/31 01:38:10;;;;;;;0.10;0.10;;;5.60;1.00;12.80;88045.00;;;;5032685;28;20222;-74
2022/03/31 01:40:41;;;;;;;0.10;0.10;;;5.60;1.00;12.80;88045.00;;;;5027431;28;20211;-74
2022/03/31 01:43:09;;;;;;;0.10;0.10;;;5.60;1.00;12.80;88045.00;;;;5030573;28;20602;-74
2022/03/31 01:45:37;;;;;;;0.10;0.10;;;5.60;1.00;12.80;88045.00;;;;5025344;28;20201;-73
2022/03/31 01:48:06;;;;;;;0.10;0.10;;;5.60;1.00;12.80;88045.00;;;;5028085;28;20229;-73
2022/03/31 01:50:35;;;;;;;0.00;0.00;;;5.60;1.00;12.80;88045.00;;;;5031496;28;20553;-73
2022/03/31 01:53:03;;;;;;;0.10;0.10;;;5.60;1.00;12.80;88045.00;;;;5031662;28;20203;-73
2022/03/31 01:55:31;;;;;;;0.10;0.10;;;5.60;1.00;12.80;88045.00;;;;5033255;28;20198;-73
2022/03/31 01:58:00;;;;;;;0.10;0.10;;;5.60;1.00;12.80;88045.00;;;;5044857;28;20228;-73
2022/03/31 02:00:28;;;;;;;0.10;0.10;;;5.60;1.00;12.80;88045.00;;;;5023619;28;20546;-73
2022/03/31 02:02:56;;;;;;;0.00;0.00;;;5.60;1.00;12.80;88045.00;;;;5032501;28;20199;-73
2022/03/31 02:05:25;;;;;;;0.00;0.00;;;5.50;1.00;12.80;88045.00;;;;5032247;28;20569;-73
2022/03/31 02:07:54;;;;;;;0.08;0.08;;;5.50;1.00;12.80;88045.00;;;;5034677;28;20206;-73
2022/03/31 02:10:25;;;;;;;0.10;0.10;;;5.50;1.00;12.80;88045.00;;;;5057362;28;20192;-73
2022/03/31 02:12:54;;;;;;;0.10;0.10;;;5.50;1.00;12.80;88045.00;;;;5044354;28;20291;-73
2022/03/31 02:15:25;;;;;;;0.10;0.10;;;5.60;1.00;12.80;88045.00;;;;5055706;28;20217;-72
2022/03/31 02:17:55;;;;;;;0.10;0.10;;;5.60;1.00;12.80;88045.00;;;;5053309;28;20381;-73
2022/03/31 02:20:24;;;;;;;0.10;0.10;;;5.60;1.00;12.80;88045.00;;;;5031389;28;20199;-73
2022/03/31 02:22:52;;;;;;;0.10;0.10;;;5.60;1.00;12.80;88045.00;;;;5031782;28;20285;-74
2022/03/31 02:25:20;;;;;;;0.10;0.10;;;5.50;1.00;12.80;88045.00;;;;5029253;28;20567;-74
2022/03/31 02:27:52;;;;;;;0.10;0.10;;;5.50;1.00;12.80;88045.00;;;;5029245;28;20257;-74
2022/03/31 02:30:22;;;;;;;0.10;0.10;;;5.50;1.00;12.80;88045.00;;;;5032008;28;20664;-74
2022/03/31 02:32:51;;;;;;;0.10;0.10;;;5.60;1.00;12.80;88045.00;;;;5031046;28;20249;-74
2022/03/31 02:35:20;;;;;;;0.00;0.00;;;5.60;1.00;12.80;88045.00;;;;5030974;28;20198;-74
2022/03/31 02:37:48;;;;;;;0.10;0.10;;;5.60;1.00;12.80;88045.00;;;;5029917;28;20211;-74
2022/03/31 02:40:16;;;;;;;0.10;0.10;;;5.60;1.00;12.80;88045.00;;;;5031313;28;20573;-73
2022/03/31 02:42:44;;;;;;;0.10;0.10;;;5.60;1.00;12.80;88045.00;;;;5031344;28;20203;-74
2022/03/31 02:45:12;;;;;;;0.10;0.10;;;5.60;1.00;12.80;88045.00;;;;5030823;28;20240;-76
2022/03/31 02:47:44;;;;;;;0.10;0.10;;;5.60;1.00;12.80;88045.00;;;;5055681;22;20723;-73
2022/03/31 02:50:17;;;;;;;0.10;0.10;;;5.60;1.00;12.80;88045.00;;;;5034733;28;20195;-73
2022/03/31 02:55:31;;;;;;;0.10;0.10;;;5.60;1.00;12.80;88045.00;;;;5030457;28;20187;-74
2022/03/31 02:58:03;;;;;;;0.10;0.10;;;5.60;1.00;12.80;88045.00;;;;5032177;28;20609;-73
2022/03/31 03:00:35;;;;;;;0.10;0.10;;;5.50;1.00;12.80;88045.00;;;;5034505;28;20554;-74
2022/03/31 03:03:04;;;;;;;0.10;0.10;;;5.50;1.00;12.80;88045.00;;;;5032917;28;20278;-74
2022/03/31 03:05:34;;;;;;;0.10;0.10;;;5.50;1.00;12.80;88045.00;;;;5032632;28;20195;-73
2022/03/31 03:08:02;;;;;;;0.10;0.10;;;5.50;1.00;12.80;88045.00;;;;5030812;28;20244;-73
2022/03/31 03:10:31;;;;;;;0.10;0.10;;;5.50;1.00;12.80;88045.00;;;;5031021;28;20191;-73
2022/03/31 03:12:59;;;;;;;0.10;0.10;;;5.50;1.00;12.80;88045.00;;;;5030595;28;20297;-74
2022/03/31 03:15:27;;;;;;;0.10;0.10;;;5.40;1.00;12.80;88045.00;;;;5031063;28;20734;-74
2022/03/31 03:17:55;;;;;;;0.10;0.10;;;5.40;1.00;12.80;88045.00;;;;5026940;28;20233;-73
2022/03/31 03:20:25;;;;;;;0.05;0.05;;;5.40;1.00;12.80;88045.00;;;;5031690;28;20575;-71
2022/03/31 03:22:55;;;;;;;0.08;0.08;;;5.40;1.00;12.80;88045.00;;;;5023402;28;20202;-72
2022/03/31 03:25:23;;;;;;;0.10;0.10;;;5.40;1.00;12.80;88045.00;;;;5031029;28;20194;-72
2022/03/31 03:27:52;;;;;;;0.10;0.10;;;5.40;1.00;12.80;88045.00;;;;5030228;28;20265;-72
2022/03/31 03:30:22;;;;;;;0.10;0.10;;;5.40;1.00;12.80;88045.00;;;;5030433;28;20207;-71
2022/03/31 03:32:50;;;;;;;0.10;0.10;;;5.40;1.00;12.80;88045.00;;;;5031213;28;20575;-71
2022/03/31 03:35:18;;;;;;;0.10;0.10;;;5.40;1.00;12.80;88045.00;;;;5028237;28;20202;-71
2022/03/31 03:37:47;;;;;;;0.10;0.10;;;5.40;1.00;12.80;88045.00;;;;5022002;28;20238;-71
2022/03/31 03:40:17;;;;;;;0.10;0.10;;;5.40;1.00;12.80;88045.00;;;;5034198;28;20202;-70
2022/03/31 03:42:45;;;;;;;0.10;0.10;;;5.40;1.00;12.80;88045.00;;;;5026112;28;20198;-71
2022/03/31 03:45:14;;;;;;;0.10;0.10;;;5.40;1.00;12.80;88045.00;;;;5036912;28;20199;-72
2022/03/31 03:47:43;;;;;;;0.10;0.10;;;5.40;1.00;12.80;88045.00;;;;5033920;28;20319;-72
2022/03/31 03:50:12;;;;;;;0.10;0.10;;;5.40;1.00;12.80;88045.00;;;;5035457;28;20215;-72
2022/03/31 03:52:40;;;;;;;0.10;0.10;;;5.40;1.00;12.80;88045.00;;;;5035898;28;20296;-72
2022/03/31 03:55:10;;;;;;;0.10;0.10;;;5.40;1.00;12.80;88045.00;;;;5035758;28;20678;-72
2022/03/31 03:57:39;;;;;;;0.10;0.10;;;5.40;1.00;12.80;88045.00;;;;5034009;28;20226;-71
2022/03/31 04:00:09;;;;;;;0.10;0.10;;;5.40;1.00;12.80;88045.00;;;;5034464;28;20194;-71
2022/03/31 04:02:38;;;;;;;0.10;0.10;;;5.40;1.00;12.80;88045.00;;;;5033360;28;20195;-71
2022/03/31 04:05:08;;;;;;;0.10;0.10;;;5.40;1.00;12.80;88045.00;;;;5034830;28;20203;-71
2022/03/31 04:07:36;;;;;;;0.00;0.00;;;5.30;1.00;12.80;88045.00;;;;5029411;28;20227;-73
2022/03/31 04:10:05;;;;;;;0.10;0.10;;;5.40;1.00;12.80;88045.00;;;;5029514;28;20215;-71
2022/03/31 04:12:33;;;;;;;0.10;0.10;;;5.40;1.00;12.80;88045.00;;;;5033546;28;20211;-71
2022/03/31 04:15:04;;;;;;;0.10;0.10;;;5.40;1.00;12.80;88045.00;;;;5036737;28;20199;-71
2022/03/31 04:17:33;;;;;;;0.10;0.10;;;5.40;1.00;12.80;88045.00;;;;5034102;28;20306;-71
2022/03/31 04:20:06;;;;;;;0.10;0.10;;;5.40;1.00;12.80;88045.00;;;;5032513;28;20191;-73
2022/03/31 04:22:34;;;;;;;0.10;0.10;;;5.30;1.00;12.80;88045.00;;;;5034073;28;20187;-71
2022/03/31 04:25:02;;;;;;;0.10;0.10;;;5.30;1.00;12.80;88045.00;;;;5032383;28;20192;-72
2022/03/31 04:27:30;;;;;;;0.10;0.10;;;5.20;1.00;12.80;88045.00;;;;5033867;28;20972;-72
2022/03/31 04:29:58;;;;;;;0.10;0.10;;;5.20;1.00;12.80;88045.00;;;;5031257;28;20546;-72
2022/03/31 04:32:27;;;;;;;0.10;0.10;;;5.10;1.00;12.80;88045.00;;;;5032491;28;20229;-72
2022/03/31 04:34:56;;;;;;;0.10;0.10;;;5.10;1.00;12.80;88045.00;;;;5033700;28;20207;-71
2022/03/31 04:37:24;;;;;;;0.00;0.00;;;5.20;1.00;12.80;88045.00;;;;5034925;28;20221;-71
2022/03/31 04:39:52;;;;;;;0.10;0.10;;;5.20;1.00;12.80;88045.00;;;;5033823;28;20187;-71
2022/03/31 04:42:21;;;;;;;0.10;0.10;;;5.20;1.00;12.80;88045.00;;;;5033970;28;20231;-71
2022/03/31 04:44:49;;;;;;;0.10;0.10;;;5.30;1.00;12.80;88045.00;;;;5034156;28;20195;-71
2022/03/31 04:47:17;;;;;;;0.10;0.10;;;5.20;1.00;12.80;88045.00;;;;5033229;28;20207;-72
2022/03/31 04:49:47;;;;;;;0.10;0.10;;;5.30;1.00;12.80;88045.00;;;;5026029;28;20186;-71
2022/03/31 04:52:15;;;;;;;0.10;0.10;;;5.30;1.00;12.80;88045.00;;;;5034204;28;20290;-72
2022/03/31 04:54:44;;;;;;;0.10;0.10;;;5.30;1.00;12.80;88045.00;;;;5033252;28;20210;-72
2022/03/31 04:57:13;;;;;;;0.10;0.10;;;5.30;1.00;12.80;88045.00;;;;5032373;28;20206;-72
2022/03/31 04:59:42;;;;;;;0.10;0.10;;;5.30;1.00;12.80;88045.00;;;;5032734;28;20191;-72
2022/03/31 05:02:12;;;;;;;0.10;0.10;;;5.30;1.00;12.80;88045.00;;;;5033339;28;20206;-72
2022/03/31 05:04:40;;;;;;;0.10;0.10;;;5.30;1.00;12.80;88045.00;;;;5033938;28;20198;-71
2022/03/31 05:07:09;;;;;;;0.10;0.10;;;5.30;1.00;12.80;88045.00;;;;5032747;28;20202;-72
2022/03/31 05:09:38;;;;;;;0.10;0.10;;;5.30;1.00;12.80;88045.00;;;;5032123;28;20206;-74
2022/03/31 05:12:07;;;;;;;0.10;0.10;;;5.30;1.00;12.80;88045.00;;;;5035041;28;20191;-72
2022/03/31 05:14:36;;;;;;;0.10;0.10;;;5.30;1.00;12.80;88045.00;;;;5033191;28;20215;-72
2022/03/31 05:17:05;;;;;;;0.10;0.10;;;5.30;1.00;12.80;88045.00;;;;5031814;28;20191;-72
2022/03/31 05:19:35;;;;;;;0.10;0.10;;;5.20;1.00;12.80;88045.00;;;;5033083;28;20195;-73
2022/03/31 05:22:03;;;;;;;0.10;0.10;;;5.20;1.00;12.80;88045.00;;;;5031731;28;20203;-71
2022/03/31 05:24:33;;;;;;;0.10;0.10;;;5.20;1.00;12.80;88045.00;;;;5033285;28;20199;-72
2022/03/31 05:27:01;;;;;;;0.10;0.10;;;5.20;1.00;12.80;88045.00;;;;5033251;28;20562;-72
2022/03/31 05:29:29;;;;;;;0.10;0.10;;;5.20;1.00;12.80;88045.00;;;;5033603;28;20690;-71
2022/03/31 05:31:57;;;;;;;0.10;0.10;;;5.20;1.00;12.80;88045.00;;;;5034796;28;20551;-72
2022/03/31 05:34:26;;;;;;;0.10;0.10;;;5.20;1.00;12.80;88045.00;;;;5033847;28;20268;-72
2022/03/31 05:36:54;;;;;;;0.10;0.10;;;5.20;1.00;12.80;88045.00;;;;5032190;28;20199;-72
2022/03/31 05:39:22;;;;;;;0.10;0.10;;;5.20;1.00;12.80;88045.00;;;;5031711;28;20206;-72
2022/03/31 05:41:51;;;;;;;0.10;0.10;;;5.20;1.00;12.80;88045.00;;;;5033797;28;20199;-72
2022/03/31 05:44:19;;;;;;;0.10;0.10;;;5.20;1.00;12.80;88045.00;;;;5035117;28;20714;-72
2022/03/31 05:46:47;;;;;;;0.10;0.10;;;5.10;1.00;12.80;88045.00;;;;5033468;28;20195;-72
2022/03/31 05:49:15;;;;;;;0.10;0.10;;;5.10;1.00;12.80;88045.00;;;;5033360;28;20218;-72
2022/03/31 05:51:43;;;;;;;0.10;0.10;;;5.10;1.00;12.80;88045.00;;;;5034535;28;20191;-73
2022/03/31 05:54:11;;;;;;;0.10;0.10;;;5.20;1.00;12.80;88045.00;;;;5035482;28;20223;-72
2022/03/31 05:56:39;;;;;;;0.10;0.10;;;5.20;1.00;12.80;88045.00;;;;5033342;28;20191;-72
2022/03/31 05:59:09;;;;;;;0.10;0.10;;;5.20;1.00;12.80;88045.00;;;;5036021;28;20584;-72
2022/03/31 06:01:37;;;;;;;0.10;0.10;;;5.20;1.00;12.80;88045.00;;;;5034689;28;20660;-72
2022/03/31 06:04:05;;;;;;;0.10;0.10;;;5.30;1.00;12.80;88045.00;;;;5033806;28;20287;-72
2022/03/31 06:06:33;;;;;;;0.10;0.10;;;5.30;1.00;12.80;88045.00;;;;5033720;28;20191;-72
2022/03/31 06:09:01;;;;;;;0.10;0.10;;;5.30;1.00;12.80;88045.00;;;;5032605;28;20211;-72
2022/03/31 06:11:30;;;;;;;0.10;0.10;;;5.30;1.00;12.80;88045.00;;;;5034847;28;20199;-73
2022/03/31 06:13:58;;;;;;;0.05;0.05;;;5.30;1.00;12.80;88045.00;;;;5017945;28;20223;-73
2022/03/31 06:16:28;;;;;;;0.10;0.10;;;5.30;1.00;12.80;88045.00;;;;5018809;28;20202;-73
2022/03/31 06:18:56;;;;;;;0.10;0.10;;;5.30;1.00;12.80;88045.00;;;;5025734;28;20278;-73
2022/03/31 06:21:24;;;;;;;0.10;0.10;;;5.20;1.00;12.80;88045.00;;;;5039112;28;20199;-72
2022/03/31 06:23:52;;;;;;;0.10;0.10;;;5.30;1.00;12.80;88045.00;;;;5028701;28;20203;-73
2022/03/31 06:26:21;;;;;;;0.10;0.10;;;5.20;1.00;12.80;88045.00;;;;5017936;28;20194;-73
2022/03/31 06:28:49;;;;;;;0.10;0.10;;;5.20;1.00;12.80;88045.00;;;;5029366;28;20219;-73
2022/03/31 06:31:17;;;;;;;0.10;0.10;;;5.30;1.00;12.80;88045.00;;;;5036029;28;20195;-72
2022/03/31 06:33:46;;;;;;;0.10;0.10;;;5.30;1.00;12.80;88045.00;;;;5032479;28;20226;-72
2022/03/31 06:36:15;;;;;;;0.10;0.10;;;5.30;1.00;12.80;88045.00;;;;5030978;28;20686;-73
2022/03/31 06:38:43;;;;;;;0.10;0.10;;;5.30;1.00;12.80;88045.00;;;;5031577;28;20234;-72
2022/03/31 06:41:13;;;;;;;0.10;0.10;;;5.30;1.00;12.80;88045.00;;;;5034631;28;20199;-72
2022/03/31 06:43:45;;;;;;;0.10;0.10;;;5.30;1.00;12.80;88045.00;;;;5038772;28;20263;-73
2022/03/31 06:46:14;;;;;;;0.10;0.10;;;5.30;1.00;12.80;88045.00;;;;5038533;28;20202;-72
2022/03/31 06:48:47;;;;;;;0.10;0.10;;;5.30;1.00;12.80;88045.00;;;;5033840;28;20703;-72
2022/03/31 06:51:17;;;;;;;0.10;0.10;;;5.30;1.00;12.80;88045.00;;;;5034360;28;20205;-72
2022/03/31 06:53:46;;;;;;;0.10;0.10;;;5.30;1.00;12.80;88045.00;;;;5034190;28;20218;-72
2022/03/31 06:56:16;;;;;;;0.10;0.10;;;5.30;1.00;12.80;88045.00;;;;5033846;28;20195;-72
2022/03/31 06:58:45;;;;;;;0.10;0.10;;;5.30;1.00;12.80;88045.00;;;;5033301;28;20211;-72
2022/03/31 07:01:13;;;;;;;0.10;0.10;;;5.40;1.00;12.80;88045.00;;;;5034391;28;20206;-72
2022/03/31 07:03:41;;;;;;;0.10;0.10;;;5.30;1.00;12.80;88045.00;;;;5034633;28;20206;-72
2022/03/31 07:06:11;;;;;;;0.10;0.10;;;5.40;1.00;12.80;88045.00;;;;5033690;28;20195;-72
2022/03/31 07:08:39;;;;;;;0.10;0.10;;;5.40;1.00;12.80;88045.00;;;;5034258;28;20207;-72
2022/03/31 07:11:07;;;;;;;0.10;0.10;;;5.40;1.00;12.80;88045.00;;;;5035222;28;20206;-72
2022/03/31 07:13:35;;;;;;;0.10;0.10;;;5.40;1.00;12.80;88045.00;;;;5032727;28;20213;-71
2022/03/31 07:16:05;;;;;;;0.10;0.10;;;5.40;1.00;12.80;88045.00;;;;5032220;28;20203;-72
2022/03/31 07:18:33;;;;;;;0.10;0.10;;;5.40;1.00;12.80;88045.00;;;;5032819;28;20222;-72
2022/03/31 07:21:02;;;;;;;0.10;0.10;;;5.40;1.00;12.80;88045.00;;;;5032555;28;20218;-72
2022/03/31 07:23:32;;;;;;;0.10;0.10;;;5.40;1.00;12.80;88045.00;;;;5032741;28;20707;-72
2022/03/31 07:26:00;;;;;;;0.10;0.10;;;5.50;1.00;12.80;88045.00;;;;5032430;28;20668;-72
2022/03/31 07:28:28;;;;;;;0.10;0.10;;;5.50;1.00;12.80;88045.00;;;;5033114;28;20222;-71
2022/03/31 07:30:57;;;;;;;0.10;0.10;;;5.50;1.00;12.80;88045.00;;;;5032564;28;20187;-72
2022/03/31 07:33:25;;;;;;;0.00;0.00;;;5.50;1.00;12.80;88045.00;;;;5032470;28;20314;-72
2022/03/31 07:35:53;;;;;;;0.10;0.10;;;5.50;1.00;12.80;88045.00;;;;5031984;28;20907;-72
2022/03/31 07:38:22;;;;;;;0.10;0.10;;;5.40;1.00;12.80;88045.00;;;;5032939;28;20218;-72
2022/03/31 07:40:52;;;;;;;0.10;0.10;;;5.40;1.00;12.80;88045.00;;;;5031620;28;20758;-72
2022/03/31 07:43:20;;;;;;;0.10;0.10;;;5.40;1.00;12.80;88045.00;;;;5032491;28;20206;-72
2022/03/31 07:45:48;;;;;;;0.10;0.10;;;5.40;1.00;12.80;88045.00;;;;5032286;28;20294;-72
2022/03/31 07:48:18;;;;;;;0.10;0.10;;;5.50;1.00;12.80;88045.00;;;;5032604;28;20223;-72
2022/03/31 07:50:46;;;;;;;0.08;0.08;;;5.50;1.00;12.80;88045.00;;;;5032423;28;20198;-72
2022/03/31 07:53:17;;;;;;;0.10;0.10;;;5.40;1.00;12.80;88045.00;;;;5032759;28;20191;-72
2022/03/31 07:55:45;;;;;;;0.10;0.10;;;5.40;1.00;12.80;88045.00;;;;5032325;28;20254;-71
2022/03/31 07:58:14;;;;;;;0.10;0.10;;;5.40;1.00;12.80;88045.00;;;;5033042;28;20215;-72
2022/03/31 08:00:42;;;;;;;0.10;0.10;;;5.40;1.00;12.80;88045.00;;;;5032665;28;20195;-72
2022/03/31 08:03:10;;;;;;;0.10;0.10;;;5.50;1.00;12.80;88045.00;;;;5033145;28;20196;-72
2022/03/31 08:05:39;;;;;;;0.10;0.10;;;5.50;1.00;12.80;88045.00;;;;5033378;28;20256;-74
2022/03/31 08:08:08;;;;;;;0.10;0.10;;;5.50;1.00;12.80;88045.00;;;;5031944;28;20219;-72
2022/03/31 08:10:36;;;;;;;0.10;0.10;;;5.50;1.00;12.80;88045.00;;;;5034495;28;20199;-71
2022/03/31 08:13:04;;;;;;;0.10;0.10;;;5.50;1.00;12.80;88045.00;;;;5034077;28;20675;-72
2022/03/31 08:15:34;;;;;;;0.10;0.10;;;5.50;1.00;12.80;88045.00;;;;5033453;28;20305;-72
2022/03/31 08:18:02;;;;;;;0.10;0.10;;;5.50;1.00;12.80;88045.00;;;;5033271;28;20210;-72
2022/03/31 08:20:30;;;;;;;0.10;0.10;;;5.50;1.00;12.80;88045.00;;;;5032240;28;20278;-72
2022/03/31 08:22:58;;;;;;;0.10;0.10;;;5.50;1.00;12.80;88045.00;;;;5033017;28;20222;-71
2022/03/31 08:25:26;;;;;;;0.10;0.10;;;5.50;1.00;12.80;88045.00;;;;5034227;28;20254;-72
2022/03/31 08:27:54;;;;;;;0.10;0.10;;;5.50;1.00;12.80;88045.00;;;;5035039;28;20215;-71
2022/03/31 08:30:24;;;;;;;0.10;0.10;;;5.60;1.00;12.80;88045.00;;;;5036512;28;20249;-72
2022/03/31 08:32:53;;;;;;;0.10;0.10;;;5.60;1.00;12.80;88045.00;;;;5035606;28;20194;-72
2022/03/31 08:35:24;;;;;;;0.10;0.10;;;5.60;1.00;12.80;88045.00;;;;5036114;28;20737;-71
2022/03/31 08:37:52;;;;;;;0.10;0.10;;;5.60;1.00;12.80;88045.00;;;;5035490;28;20210;-71
2022/03/31 08:40:21;;;;;;;0.10;0.10;;;5.60;1.00;12.80;88045.00;;;;5036095;28;20187;-71
2022/03/31 08:42:49;;;;;;;0.00;0.00;;;5.60;1.00;12.80;88045.00;;;;5051336;28;20671;-71
2022/03/31 08:45:20;;;;;;;0.10;0.10;;;5.60;1.00;12.80;88045.00;;;;5036109;28;20191;-72
2022/03/31 08:47:53;;;;;;;0.10;0.10;;;5.60;1.00;12.80;88045.00;;;;5035696;28;20732;-71
2022/03/31 08:50:24;;;;;;;0.10;0.10;;;5.50;1.00;12.80;88045.00;;;;5035218;28;20198;-71
2022/03/31 08:52:53;;;;;;;0.10;0.10;;;5.50;1.00;12.80;88045.00;;;;5035071;28;20187;-71
2022/03/31 08:55:21;;;;;;;0.10;0.10;;;5.50;1.00;12.80;88045.00;;;;5034810;28;20225;-71
2022/03/31 08:57:54;;;;;;;0.10;0.10;;;5.50;1.00;12.80;88045.00;;;;5034122;28;20297;-71
2022/03/31 09:00:25;;;;;;;0.10;0.10;;;5.50;1.00;12.80;88045.00;;;;5066285;22;20598;-72
2022/03/31 09:03:00;;;;;;;0.10;0.10;;;5.50;1.00;12.80;88045.00;;;;5014881;28;20570;-71
2022/03/31 09:05:38;;;;;;;0.10;0.10;;;5.50;1.00;12.80;88045.00;;;;5014961;28;20191;-72
2022/03/31 09:08:10;;;;;;;0.10;0.10;;;5.50;1.00;12.80;88045.00;;;;5024577;28;20217;-71
2022/03/31 09:10:51;;;;;;;0.10;0.10;;;5.50;1.00;12.80;88045.00;;;;5034682;28;20187;-72
2022/03/31 09:13:22;;;;;;;0.00;0.00;;;5.50;1.00;12.80;88045.00;;;;5033919;28;20198;-72
2022/03/31 09:15:53;;;;;;;0.10;0.10;;;5.50;1.00;12.80;88045.00;;;;5034318;28;20215;-72
2022/03/31 09:18:26;;;;;;;0.10;0.10;;;5.50;1.00;12.80;88045.00;;;;5035170;28;20214;-72
2022/03/31 09:20:58;;;;;;;0.10;0.10;;;5.50;1.00;12.80;88045.00;;;;5034891;28;20191;-72
2022/03/31 09:23:29;;;;;;;0.10;0.10;;;5.50;1.00;12.80;88045.00;;;;5035187;28;20199;-72
2022/03/31 09:26:08;;;;;;;0.10;0.10;;;5.50;1.00;12.80;88045.00;;;;5034329;28;20277;-72
2022/03/31 09:28:37;;;;;;;0.10;0.10;;;5.50;1.00;12.80;88045.00;;;;5034690;28;20211;-73
2022/03/31 09:31:08;;;;;;;0.10;0.10;;;5.50;1.00;12.80;88045.00;;;;5034652;28;20191;-72
2022/03/31 09:33:39;;;;;;;0.10;0.10;;;5.50;1.00;12.80;88045.00;;;;5034854;28;20188;-72
2022/03/31 09:36:13;;;;;;;0.10;0.10;;;5.50;1.00;12.80;88045.00;;;;5033944;28;20223;-72
2022/03/31 09:38:53;;;;;;;0.10;0.10;;;5.50;1.00;12.80;88045.00;;;;5034208;28;20211;-73
2022/03/31 09:41:24;;;;;;;0.10;0.10;;;5.60;1.00;12.80;88045.00;;;;5034607;28;20660;-72
2022/03/31 09:43:55;;;;;;;0.10;0.10;;;5.60;1.00;12.80;88045.00;;;;5034339;28;20196;-72
2022/03/31 09:46:26;;;;;;;0.10;0.10;;;5.60;1.00;12.80;88045.00;;;;5034107;28;20668;-72
2022/03/31 09:49:11;;;;;;;0.10;0.10;;;5.60;1.00;12.80;88045.00;;;;5035203;28;20219;-72
2022/03/31 09:51:42;;;;;;;0.10;0.10;;;5.60;1.00;12.80;88045.00;;;;5036034;28;20199;-73
2022/03/31 09:54:10;;;;;;;0.10;0.10;;;5.60;1.00;12.80;88045.00;;;;5036659;28;20191;-72
2022/03/31 09:56:40;;;;;;;0.10;0.10;;;5.70;1.00;12.80;88045.00;;;;5030508;28;20254;-73
2022/03/31 09:59:11;;;;;;;0.10;0.10;;;5.70;1.00;12.80;88045.00;;;;5034089;28;20223;-73
2022/03/31 10:01:51;;;;;;;0.10;0.10;;;5.70;1.00;12.80;88045.00;;;;5035844;28;20195;-72
2022/03/31 10:04:21;;;;;;;0.10;0.10;;;5.70;1.00;12.80;88045.00;;;;5035003;28;20253;-72
2022/03/31 10:06:56;;;;;;;0.10;0.10;;;5.70;1.00;12.80;88045.00;;;;5033760;28;20274;-72
2022/03/31 10:09:26;;;;;;;0.10;0.10;;;5.70;1.00;12.80;88045.00;;;;5034144;28;20651;-72
2022/03/31 10:12:17;;;;;;;0.10;0.10;;;5.70;1.00;12.80;88045.00;;;;5034588;28;20191;-72
2022/03/31 10:14:59;;;;;;;0.10;0.10;;;5.70;1.00;12.80;88045.00;;;;5033700;28;20191;-72
2022/03/31 10:17:30;;;;;;;0.10;0.10;;;5.70;1.00;12.80;88045.00;;;;5031856;28;20230;-72
2022/03/31 10:20:09;;;;;;;0.00;0.00;;;5.70;1.00;12.80;88045.00;;;;5033536;28;20199;-72
2022/03/31 10:25:35;;;;;;;0.10;0.10;;;5.60;1.00;12.80;88045.00;;;;5032161;28;20241;-72
2022/03/31 10:28:11;;;;;;;0.00;0.00;;;5.60;1.00;12.80;88045.00;;;;5033255;28;20214;-72
2022/03/31 10:30:40;;;;;;;0.10;0.10;;;5.60;1.00;12.80;88045.00;;;;5034108;28;20245;-72
2022/03/31 10:33:09;;;;;;;0.10;0.10;;;5.70;1.00;12.80;88045.00;;;;5033582;28;20190;-73
2022/03/31 10:35:40;;;;;;;0.10;0.10;;;5.70;1.00;12.80;88045.00;;;;5032200;28;20731;-74
2022/03/31 10:38:17;;;;;;;0.10;0.10;;;5.70;1.00;12.80;88045.00;;;;5033132;28;20318;-72
2022/03/31 10:40:49;;;;;;;0.10;0.10;;;5.70;1.00;12.80;88045.00;;;;5032135;28;20207;-72
2022/03/31 10:43:23;;;;;;;0.10;0.10;;;5.70;1.00;12.80;88045.00;;;;5033436;28;20687;-73
2022/03/31 10:45:54;;;;;;;0.10;0.10;;;5.70;1.00;12.80;88045.00;;;;5032689;28;20210;-72
2022/03/31 10:48:26;;;;;;;0.10;0.10;;;5.70;1.00;12.80;88045.00;;;;5032434;28;20578;-73
2022/03/31 10:51:06;;;;;;;0.10;0.10;;;5.80;1.00;12.80;88045.00;;;;5033275;28;20198;-73
2022/03/31 10:53:39;;;;;;;0.10;0.10;;;5.80;1.00;12.80;88045.00;;;;5033305;28;20217;-73
2022/03/31 10:56:19;;;;;;;0.10;0.10;;;5.90;1.00;12.80;88045.00;;;;5032394;28;20218;-73
2022/03/31 10:58:49;;;;;;;0.00;0.00;;;5.90;1.00;12.80;88045.00;;;;5032509;28;20222;-72
2022/03/31 11:01:19;;;;;;;0.10;0.10;;;6.00;1.00;12.80;88045.00;;;;5034808;28;20191;-72
2022/03/31 11:03:50;;;;;;;0.10;0.10;;;6.00;1.00;12.80;88045.00;;;;5036338;28;20191;-72
2022/03/31 11:06:19;;;;;;;0.10;0.10;;;6.00;1.00;12.80;88045.00;;;;5038535;28;20765;-72
2022/03/31 11:08:50;;;;;;;0.10;0.10;;;6.00;1.00;12.80;88045.00;;;;5034390;28;20638;-72
2022/03/31 11:11:21;;;;;;;0.10;0.10;;;6.00;1.00;12.80;88045.00;;;;5048423;28;20202;-72
2022/03/31 11:13:49;;;;;;;0.10;0.10;;;6.00;1.00;12.80;88045.00;;;;5032375;28;20210;-73
2022/03/31 11:16:18;;;;;;;0.10;0.10;;;6.00;1.00;12.80;88045.00;;;;5032301;28;20230;-72
2022/03/31 11:18:54;;;;;;;0.10;0.10;;;6.00;1.00;12.80;88045.00;;;;5032864;28;20207;-72
2022/03/31 11:21:23;;;;;;;0.05;0.05;;;6.00;1.00;12.80;88045.00;;;;5030891;28;20194;-72
2022/03/31 11:23:56;;;;;;;0.10;0.10;;;6.10;1.00;12.80;88045.00;;;;5031094;28;20187;-73
2022/03/31 11:26:30;;;;;;;0.10;0.10;;;6.10;1.00;12.80;88045.00;;;;5032017;28;20566;-72